createdAt,value
2023-01-20T00:01:30.523Z,-2.10
2023-01-20T00:03:59.619Z,-2.10
2023-01-20T00:06:28.843Z,-2.10
2023-01-20T00:09:01.220Z,-2.20
2023-01-20T00:11:30.157Z,-2.20
2023-01-20T00:14:00.031Z,-2.20
2023-01-20T00:16:29.067Z,-2.20
2023-01-20T00:18:57.299Z,-2.20
2023-01-20T00:21:25.673Z,-2.20
2023-01-20T00:23:53.907Z,-2.20
2023-01-20T00:26:24.935Z,-2.30
2023-01-20T00:28:55.501Z,-2.30
2023-01-20T00:31:25.710Z,-2.30
2023-01-20T00:33:56.245Z,-2.30
2023-01-20T00:36:25.948Z,-2.40
2023-01-20T00:38:54.778Z,-2.40
2023-01-20T00:41:24.919Z,-2.40
2023-01-20T00:43:53.295Z,-2.40
2023-01-20T00:46:22.936Z,-2.40
2023-01-20T00:48:51.413Z,-2.40
2023-01-20T00:51:19.981Z,-2.50
2023-01-20T00:53:48.387Z,-2.50
2023-01-20T00:56:16.672Z,-2.50
2023-01-20T00:58:46.365Z,-2.60
2023-01-20T01:01:14.817Z,-2.60
2023-01-20T01:03:43.164Z,-2.60
2023-01-20T01:06:14.299Z,-2.70
2023-01-20T01:08:43.449Z,-2.70
2023-01-20T01:11:12.842Z,-2.80
2023-01-20T01:13:41.853Z,-2.80
2023-01-20T01:16:14.475Z,-2.80
2023-01-20T01:18:43.272Z,-2.80
2023-01-20T01:21:13.380Z,-2.80
2023-01-20T01:23:41.767Z,-2.80
2023-01-20T01:26:10.572Z,-2.80
2023-01-20T01:28:38.866Z,-2.90
2023-01-20T01:31:09.142Z,-2.90
2023-01-20T01:33:38.898Z,-2.90
2023-01-20T01:36:08.469Z,-2.90
2023-01-20T01:38:36.820Z,-2.90
2023-01-20T01:41:05.040Z,-2.90
2023-01-20T01:43:34.822Z,-2.90
2023-01-20T01:46:03.687Z,-2.90
2023-01-20T01:48:36.267Z,-3.00
2023-01-20T01:51:09.942Z,-3.00
2023-01-20T01:53:42.297Z,-3.00
2023-01-20T01:56:11.868Z,-3.10
2023-01-20T01:58:45.830Z,-3.10
2023-01-20T02:01:14.550Z,-3.20
2023-01-20T02:03:49.689Z,-3.20
2023-01-20T02:06:20.811Z,-3.20
2023-01-20T02:08:49.873Z,-3.30
2023-01-20T02:11:18.112Z,-3.30
2023-01-20T02:13:46.680Z,-3.40
2023-01-20T02:16:19.414Z,-3.40
2023-01-20T02:19:02.840Z,-3.40
2023-01-20T02:22:02.179Z,-3.40
2023-01-20T02:25:10.489Z,-3.40
2023-01-20T02:27:54.214Z,-3.30
2023-01-20T02:30:55.670Z,-3.30
2023-01-20T02:33:29.862Z,-3.20
2023-01-20T02:36:07.922Z,-3.20
2023-01-20T02:38:45.267Z,-3.10
2023-01-20T02:41:18.931Z,-3.00
2023-01-20T02:43:51.331Z,-3.00
2023-01-20T02:46:26.522Z,-2.90
2023-01-20T02:49:05.012Z,-2.90
2023-01-20T02:51:41.840Z,-2.80
2023-01-20T02:54:14.472Z,-2.70
2023-01-20T02:56:43.982Z,-2.70
2023-01-20T02:59:14.877Z,-2.70
2023-01-20T03:01:47.668Z,-2.60
2023-01-20T03:04:20.918Z,-2.60
2023-01-20T03:06:53.491Z,-2.60
2023-01-20T03:09:26.822Z,-2.60
2023-01-20T03:12:00.051Z,-2.60
2023-01-20T03:14:28.903Z,-2.50
2023-01-20T03:16:57.341Z,-2.50
2023-01-20T03:19:27.038Z,-2.50
2023-01-20T03:21:55.386Z,-2.50
2023-01-20T03:24:24.939Z,-2.40
2023-01-20T03:26:53.343Z,-2.40
2023-01-20T03:29:21.797Z,-2.40
2023-01-20T03:31:53.845Z,-2.50
2023-01-20T03:34:24.686Z,-2.50
2023-01-20T03:36:55.224Z,-2.50
2023-01-20T03:39:24.862Z,-2.50
2023-01-20T03:42:02.356Z,-2.60
2023-01-20T03:44:40.676Z,-2.70
2023-01-20T03:47:18.106Z,-2.70
2023-01-20T03:49:55.593Z,-2.80
2023-01-20T03:52:47.773Z,-2.80
2023-01-20T03:55:22.478Z,-2.90
2023-01-20T03:57:55.950Z,-3.00
2023-01-20T04:00:29.519Z,-3.00
2023-01-20T04:03:00.544Z,-3.00
2023-01-20T04:05:30.277Z,-3.00
2023-01-20T04:08:03.383Z,-3.10
2023-01-20T04:10:34.321Z,-3.10
2023-01-20T04:13:02.606Z,-3.10
2023-01-20T04:15:35.522Z,-3.10
2023-01-20T04:18:16.213Z,-3.10
2023-01-20T04:20:45.639Z,-3.10
2023-01-20T04:23:20.804Z,-3.10
2023-01-20T04:25:49.251Z,-3.10
2023-01-20T04:28:17.470Z,-3.10
2023-01-20T04:30:45.852Z,-3.10
2023-01-20T04:33:14.129Z,-3.10
2023-01-20T04:35:42.413Z,-3.00
2023-01-20T04:38:10.764Z,-3.00
2023-01-20T04:40:40.526Z,-2.90
2023-01-20T04:43:10.000Z,-2.90
2023-01-20T04:45:38.432Z,-2.90
2023-01-20T04:48:08.245Z,-2.80
2023-01-20T04:50:39.528Z,-2.80
2023-01-20T04:53:08.018Z,-2.70
2023-01-20T04:55:36.281Z,-2.70
2023-01-20T04:58:05.878Z,-2.70
2023-01-20T05:00:34.324Z,-2.60
2023-01-20T05:03:02.976Z,-2.60
2023-01-20T05:05:31.207Z,-2.60
2023-01-20T05:07:59.687Z,-2.50
2023-01-20T05:10:27.907Z,-2.50
2023-01-20T05:12:56.202Z,-2.50
2023-01-20T05:15:25.876Z,-2.50
2023-01-20T05:17:54.257Z,-2.50
2023-01-20T05:20:22.541Z,-2.50
2023-01-20T05:22:50.782Z,-2.40
2023-01-20T05:25:19.029Z,-2.40
2023-01-20T05:27:47.337Z,-2.40
2023-01-20T05:30:15.982Z,-2.40
2023-01-20T05:32:46.136Z,-2.40
2023-01-20T05:35:14.656Z,-2.40
2023-01-20T05:37:43.053Z,-2.40
2023-01-20T05:40:12.910Z,-2.40
2023-01-20T05:42:41.275Z,-2.40
2023-01-20T05:45:10.311Z,-2.40
2023-01-20T05:47:38.594Z,-2.40
2023-01-20T05:50:09.107Z,-2.30
2023-01-20T05:52:37.485Z,-2.30
2023-01-20T05:55:06.265Z,-2.30
2023-01-20T05:57:34.427Z,-2.20
2023-01-20T06:00:02.743Z,-2.20
2023-01-20T06:02:33.258Z,-2.20
2023-01-20T06:05:01.679Z,-2.20
2023-01-20T06:07:31.764Z,-2.20
2023-01-20T06:10:00.198Z,-2.10
2023-01-20T06:12:28.497Z,-2.20
2023-01-20T06:14:56.771Z,-2.10
2023-01-20T06:17:24.959Z,-2.10
2023-01-20T06:19:53.340Z,-2.10
2023-01-20T06:22:21.716Z,-2.20
2023-01-20T06:24:52.077Z,-2.20
2023-01-20T06:27:20.724Z,-2.10
2023-01-20T06:29:50.768Z,-2.10
2023-01-20T06:32:19.083Z,-2.10
2023-01-20T06:34:47.371Z,-2.10
2023-01-20T06:37:15.640Z,-2.10
2023-01-20T06:39:43.913Z,-2.10
2023-01-20T06:42:13.558Z,-2.00
2023-01-20T06:44:41.973Z,-2.00
2023-01-20T06:47:38.295Z,-2.00
2023-01-20T06:50:12.573Z,-2.00
2023-01-20T06:52:40.810Z,-1.90
2023-01-20T06:55:09.793Z,-1.90
2023-01-20T06:57:39.233Z,-1.90
2023-01-20T07:00:09.125Z,-1.90
2023-01-20T07:02:37.347Z,-1.90
2023-01-20T07:05:08.071Z,-1.90
2023-01-20T07:07:37.723Z,-1.90
2023-01-20T07:10:06.999Z,-1.80
2023-01-20T07:12:35.263Z,-1.80
2023-01-20T07:15:05.707Z,-1.70
2023-01-20T07:17:34.009Z,-1.60
2023-01-20T07:20:02.311Z,-1.60
2023-01-20T07:22:30.608Z,-1.60
2023-01-20T07:24:58.863Z,-1.50
2023-01-20T07:27:27.160Z,-1.50
2023-01-20T07:29:55.514Z,-1.40
2023-01-20T07:32:25.003Z,-1.40
2023-01-20T07:34:53.389Z,-1.40
2023-01-20T07:37:21.628Z,-1.40
2023-01-20T07:39:49.905Z,-1.30
2023-01-20T07:42:18.172Z,-1.30
2023-01-20T07:44:46.444Z,-1.30
2023-01-20T07:47:14.656Z,-1.30
2023-01-20T07:49:44.275Z,-1.30
2023-01-20T07:52:12.597Z,-1.30
2023-01-20T07:54:40.838Z,-1.20
2023-01-20T07:57:09.787Z,-1.20
2023-01-20T07:59:38.051Z,-1.10
2023-01-20T08:02:06.373Z,-1.20
2023-01-20T08:04:35.412Z,-1.10
2023-01-20T08:07:05.171Z,-1.10
2023-01-20T08:09:33.747Z,-1.10
2023-01-20T08:12:02.401Z,-1.20
2023-01-20T08:14:30.634Z,-1.20
2023-01-20T08:17:00.098Z,-1.20
2023-01-20T08:19:30.644Z,-1.20
2023-01-20T08:21:59.006Z,-1.10
2023-01-20T08:24:28.730Z,-1.20
2023-01-20T08:26:59.055Z,-1.20
2023-01-20T08:29:27.411Z,-1.20
2023-01-20T08:31:55.707Z,-1.20
2023-01-20T08:34:24.011Z,-1.20
2023-01-20T08:36:54.074Z,-1.20
2023-01-20T08:39:22.880Z,-1.30
2023-01-20T08:41:52.454Z,-1.30
2023-01-20T08:44:21.467Z,-1.30
2023-01-20T08:46:52.539Z,-1.20
2023-01-20T08:49:22.713Z,-1.10
2023-01-20T08:51:51.415Z,-1.00
2023-01-20T08:54:19.682Z,-1.00
2023-01-20T08:56:52.622Z,-0.90
2023-01-20T08:59:21.606Z,-0.90
2023-01-20T09:01:50.021Z,-0.90
2023-01-20T09:04:18.386Z,-0.90
2023-01-20T09:06:50.217Z,-0.80
2023-01-20T09:09:21.023Z,-0.70
2023-01-20T09:11:51.749Z,-0.60
2023-01-20T09:14:22.677Z,-0.50
2023-01-20T09:16:51.350Z,-0.40
2023-01-20T09:19:19.728Z,-0.30
2023-01-20T09:21:48.043Z,-0.20
2023-01-20T09:24:16.478Z,0.00
2023-01-20T09:26:45.249Z,0.20
2023-01-20T09:29:15.359Z,0.30
2023-01-20T09:31:49.836Z,0.40
2023-01-20T09:34:23.109Z,0.40
2023-01-20T09:36:52.427Z,0.40
2023-01-20T09:39:37.809Z,0.40
2023-01-20T09:42:34.346Z,0.40
2023-01-20T09:45:22.598Z,0.50
2023-01-20T09:47:52.516Z,0.60
2023-01-20T09:51:03.567Z,0.70
2023-01-20T09:53:44.072Z,0.70
2023-01-20T09:56:16.489Z,0.60
2023-01-20T09:58:52.688Z,0.50
2023-01-20T10:01:30.723Z,0.60
2023-01-20T10:04:10.727Z,0.60
2023-01-20T10:06:43.722Z,0.70
2023-01-20T10:09:21.899Z,0.80
2023-01-20T10:11:53.370Z,0.70
2023-01-20T10:14:26.963Z,0.60
2023-01-20T10:16:59.293Z,0.60
2023-01-20T10:19:34.817Z,0.60
2023-01-20T10:22:10.661Z,0.60
2023-01-20T10:24:48.339Z,0.70
2023-01-20T10:27:16.824Z,0.80
2023-01-20T10:29:48.813Z,0.80
2023-01-20T10:32:25.758Z,0.80
2023-01-20T10:34:58.059Z,0.80
2023-01-20T10:37:27.802Z,0.80
2023-01-20T10:39:59.603Z,0.70
2023-01-20T10:42:29.233Z,0.80
2023-01-20T10:44:59.592Z,0.80
2023-01-20T10:47:39.835Z,0.90
2023-01-20T10:50:35.589Z,0.90
2023-01-20T10:53:17.457Z,1.00
2023-01-20T10:55:58.990Z,0.90
2023-01-20T10:58:29.044Z,0.90
2023-01-20T11:01:01.147Z,1.00
2023-01-20T11:03:33.767Z,1.10
2023-01-20T11:06:04.503Z,1.20
2023-01-20T11:08:32.980Z,1.30
2023-01-20T11:11:10.119Z,1.40
2023-01-20T11:13:38.398Z,1.40
2023-01-20T11:16:15.066Z,1.40
2023-01-20T11:18:43.937Z,1.50
2023-01-20T11:21:14.562Z,1.50
2023-01-20T11:23:49.400Z,1.50
2023-01-20T11:26:22.323Z,1.40
2023-01-20T11:28:54.699Z,1.40
2023-01-20T11:31:36.604Z,1.30
2023-01-20T11:34:22.829Z,1.40
2023-01-20T11:37:11.095Z,1.30
2023-01-20T11:39:45.504Z,1.30
2023-01-20T11:42:17.409Z,1.20
2023-01-20T11:44:46.405Z,1.20
2023-01-20T11:47:23.857Z,1.30
2023-01-20T11:50:20.420Z,1.40
2023-01-20T11:52:49.960Z,1.40
2023-01-20T11:55:20.657Z,1.40
2023-01-20T11:57:53.850Z,1.50
2023-01-20T12:00:37.197Z,1.60
2023-01-20T12:03:32.689Z,1.70
2023-01-20T12:06:07.560Z,1.80
2023-01-20T12:08:50.190Z,1.90
2023-01-20T12:11:25.411Z,2.10
2023-01-20T12:14:24.765Z,2.30
2023-01-20T12:17:15.453Z,2.20
2023-01-20T12:19:59.008Z,2.10
2023-01-20T12:22:37.295Z,2.10
2023-01-20T12:25:17.257Z,2.40
2023-01-20T12:27:51.172Z,2.50
2023-01-20T12:30:38.193Z,2.40
2023-01-20T12:33:12.110Z,2.20
2023-01-20T12:35:49.106Z,2.10
2023-01-20T12:38:20.567Z,2.00
2023-01-20T12:40:53.852Z,1.80
2023-01-20T12:43:40.746Z,1.70
2023-01-20T12:46:26.045Z,1.70
2023-01-20T12:49:12.831Z,1.60
2023-01-20T12:51:52.151Z,1.50
2023-01-20T12:54:48.012Z,1.60
2023-01-20T12:57:28.352Z,1.70
2023-01-20T13:00:16.438Z,1.60
2023-01-20T13:03:05.016Z,1.60
2023-01-20T13:05:47.016Z,1.40
2023-01-20T13:08:23.216Z,1.30
2023-01-20T13:11:01.072Z,1.20
2023-01-20T13:13:56.049Z,1.20
2023-01-20T13:16:33.615Z,1.20
2023-01-20T13:19:11.640Z,1.20
2023-01-20T13:21:41.811Z,1.30
2023-01-20T13:24:19.090Z,1.40
2023-01-20T13:26:49.574Z,1.30
2023-01-20T13:29:44.011Z,1.40
2023-01-20T13:32:33.925Z,1.50
2023-01-20T13:35:03.722Z,1.50
2023-01-20T13:37:36.359Z,1.50
2023-01-20T13:40:12.864Z,1.50
2023-01-20T13:42:51.848Z,1.60
2023-01-20T13:45:29.054Z,1.60
2023-01-20T13:48:24.710Z,1.50
2023-01-20T13:50:53.877Z,1.50
2023-01-20T13:53:28.911Z,1.40
2023-01-20T13:56:26.085Z,1.40
2023-01-20T13:58:54.629Z,1.40
2023-01-20T14:01:24.673Z,1.30
2023-01-20T14:04:04.170Z,1.30
2023-01-20T14:06:34.080Z,1.30
2023-01-20T14:09:03.555Z,1.30
2023-01-20T14:11:32.274Z,1.20
2023-01-20T14:14:02.919Z,1.20
2023-01-20T14:16:39.167Z,1.20
2023-01-20T14:19:23.185Z,1.20
2023-01-20T14:21:54.100Z,1.10
2023-01-20T14:24:28.882Z,1.20
2023-01-20T14:27:07.736Z,1.20
2023-01-20T14:29:36.027Z,1.30
2023-01-20T14:32:17.298Z,1.30
2023-01-20T14:34:46.133Z,1.30
2023-01-20T14:37:27.240Z,1.30
2023-01-20T14:39:58.393Z,1.30
2023-01-20T14:42:28.875Z,1.20
2023-01-20T14:44:58.406Z,1.20
2023-01-20T14:47:29.034Z,1.20
2023-01-20T14:49:57.600Z,1.10
2023-01-20T14:52:28.745Z,1.00
2023-01-20T14:54:58.574Z,1.00
2023-01-20T14:57:30.040Z,1.00
2023-01-20T15:00:20.782Z,1.00
2023-01-20T15:03:09.461Z,1.00
2023-01-20T15:05:41.582Z,0.90
2023-01-20T15:08:24.331Z,0.90
2023-01-20T15:11:20.568Z,0.80
2023-01-20T15:14:11.940Z,0.80
2023-01-20T15:16:49.173Z,0.80
2023-01-20T15:19:30.559Z,0.80
2023-01-20T15:22:17.752Z,0.80
2023-01-20T15:24:49.399Z,0.80
2023-01-20T15:27:25.626Z,0.70
2023-01-20T15:30:03.819Z,0.70
2023-01-20T15:32:32.235Z,0.70
2023-01-20T15:35:01.685Z,0.70
2023-01-20T15:37:30.202Z,0.70
2023-01-20T15:39:59.430Z,0.70
2023-01-20T15:42:27.730Z,0.60
2023-01-20T15:44:56.005Z,0.70
2023-01-20T15:47:30.852Z,0.60
2023-01-20T15:49:59.385Z,0.60
2023-01-20T15:52:28.996Z,0.60
2023-01-20T15:54:57.335Z,0.60
2023-01-20T15:57:25.914Z,0.60
2023-01-20T15:59:54.172Z,0.60
2023-01-20T16:02:24.236Z,0.60
2023-01-20T16:04:52.502Z,0.60
2023-01-20T16:07:21.602Z,0.60
2023-01-20T16:09:51.171Z,0.60
2023-01-20T16:12:20.087Z,0.60
2023-01-20T16:14:48.750Z,0.60
2023-01-20T16:17:19.232Z,0.60
2023-01-20T16:19:48.062Z,0.60
2023-01-20T16:22:16.423Z,0.60
2023-01-20T16:24:45.403Z,0.60
2023-01-20T16:27:19.970Z,0.60
2023-01-20T16:29:48.910Z,0.60
2023-01-20T16:32:21.829Z,0.60
2023-01-20T16:34:50.707Z,0.60
2023-01-20T16:37:18.969Z,0.60
2023-01-20T16:39:47.619Z,0.60
2023-01-20T16:42:17.969Z,0.50
2023-01-20T16:44:46.292Z,0.60
2023-01-20T16:47:19.679Z,0.60
2023-01-20T16:49:48.050Z,0.50
2023-01-20T16:52:16.414Z,0.60
2023-01-20T16:54:44.726Z,0.60
2023-01-20T16:57:13.000Z,0.60
2023-01-20T16:59:42.569Z,0.60
2023-01-20T17:02:12.004Z,0.60
2023-01-20T17:04:40.454Z,0.60
2023-01-20T17:10:19.160Z,0.60
2023-01-20T17:12:48.997Z,0.60
2023-01-20T17:15:19.181Z,0.60
2023-01-20T17:17:49.731Z,0.60
2023-01-20T17:20:18.642Z,0.70
2023-01-20T17:22:47.463Z,0.60
2023-01-20T17:25:17.941Z,0.60
2023-01-20T17:27:46.443Z,0.60
2023-01-20T17:30:17.144Z,0.60
2023-01-20T17:32:49.453Z,0.60
2023-01-20T17:35:19.160Z,0.60
2023-01-20T17:37:47.711Z,0.60
2023-01-20T17:40:17.070Z,0.60
2023-01-20T17:42:46.464Z,0.60
2023-01-20T17:45:15.240Z,0.60
2023-01-20T17:47:46.129Z,0.60
2023-01-20T17:50:17.068Z,0.60
2023-01-20T17:52:45.624Z,0.60
2023-01-20T17:55:14.483Z,0.60
2023-01-20T17:57:42.923Z,0.60
2023-01-20T18:00:12.806Z,0.60
2023-01-20T18:02:41.133Z,0.50
2023-01-20T18:05:09.803Z,0.60
2023-01-20T18:07:39.742Z,0.60
2023-01-20T18:10:09.342Z,0.50
2023-01-20T18:12:37.737Z,0.50
2023-01-20T18:15:07.439Z,0.50
2023-01-20T18:17:35.937Z,0.50
2023-01-20T18:20:05.685Z,0.50
2023-01-20T18:22:37.194Z,0.60
2023-01-20T18:25:07.903Z,0.60
2023-01-20T18:27:36.355Z,0.60
2023-01-20T18:30:05.719Z,0.60
2023-01-20T18:32:34.348Z,0.60
2023-01-20T18:35:02.680Z,0.60
2023-01-20T18:37:32.299Z,0.50
2023-01-20T18:40:00.707Z,0.60
2023-01-20T18:42:30.542Z,0.50
2023-01-20T18:44:59.041Z,0.50
2023-01-20T18:47:27.381Z,0.50
2023-01-20T18:49:56.578Z,0.50
2023-01-20T18:52:25.490Z,0.50
2023-01-20T18:54:53.909Z,0.50
2023-01-20T18:57:22.263Z,0.50
2023-01-20T18:59:51.950Z,0.50
2023-01-20T19:02:20.760Z,0.50
2023-01-20T19:04:49.485Z,0.50
2023-01-20T19:07:18.115Z,0.50
2023-01-20T19:09:47.667Z,0.50
2023-01-20T19:12:16.316Z,0.50
2023-01-20T19:14:45.042Z,0.50
2023-01-20T19:17:15.026Z,0.50
2023-01-20T19:19:47.876Z,0.50
2023-01-20T19:22:16.696Z,0.50
2023-01-20T19:24:45.156Z,0.50
2023-01-20T19:27:13.655Z,0.50
2023-01-20T19:29:42.098Z,0.50
2023-01-20T19:32:10.824Z,0.50
2023-01-20T19:34:43.654Z,0.50
2023-01-20T19:37:12.140Z,0.50
2023-01-20T19:39:40.693Z,0.50
2023-01-20T19:42:17.783Z,0.50
2023-01-20T19:44:47.376Z,0.50
2023-01-20T19:47:15.819Z,0.50
2023-01-20T19:49:45.666Z,0.50
2023-01-20T19:52:14.092Z,0.50
2023-01-20T19:54:42.732Z,0.50
2023-01-20T19:57:11.676Z,0.50
2023-01-20T19:59:40.899Z,0.50
2023-01-20T20:02:10.326Z,0.50
2023-01-20T20:04:39.524Z,0.60
2023-01-20T20:10:21.857Z,0.50
2023-01-20T20:12:50.486Z,0.60
2023-01-20T20:15:19.166Z,0.60
2023-01-20T20:17:47.559Z,0.60
2023-01-20T20:20:16.607Z,0.60
2023-01-20T20:22:46.454Z,0.60
2023-01-20T20:25:15.002Z,0.60
2023-01-20T20:27:43.555Z,0.60
2023-01-20T20:30:13.144Z,0.60
2023-01-20T20:32:41.557Z,0.60
2023-01-20T20:35:10.502Z,0.60
2023-01-20T20:37:39.063Z,0.60
2023-01-20T20:40:10.862Z,0.70
2023-01-20T20:42:39.393Z,0.70
2023-01-20T20:45:09.192Z,0.60
2023-01-20T20:47:37.677Z,0.60
2023-01-20T20:50:07.971Z,0.70
2023-01-20T20:52:36.494Z,0.70
2023-01-20T20:55:05.771Z,0.70
2023-01-20T20:57:35.657Z,0.70
2023-01-20T21:00:05.178Z,0.70
2023-01-20T21:02:35.004Z,0.70
2023-01-20T21:05:03.426Z,0.70
2023-01-20T21:07:31.903Z,0.70
2023-01-20T21:10:00.703Z,0.70
2023-01-20T21:12:29.449Z,0.70
2023-01-20T21:15:00.109Z,0.70
2023-01-20T21:17:28.551Z,0.70
2023-01-20T21:19:58.728Z,0.70
2023-01-20T21:22:27.113Z,0.70
2023-01-20T21:24:55.563Z,0.70
2023-01-20T21:27:24.001Z,0.70
2023-01-20T21:29:52.615Z,0.70
2023-01-20T21:32:22.388Z,0.70
2023-01-20T21:34:50.856Z,0.60
2023-01-20T21:37:20.519Z,0.60
2023-01-20T21:39:49.008Z,0.60
2023-01-20T21:42:17.749Z,0.60
2023-01-20T21:44:45.255Z,0.60
2023-01-20T21:47:13.741Z,0.60
2023-01-20T21:50:00.762Z,0.60
2023-01-20T21:52:45.201Z,0.60
2023-01-20T21:55:19.064Z,0.60
2023-01-20T21:57:50.163Z,0.60
2023-01-20T22:00:20.498Z,0.60
2023-01-20T22:02:49.038Z,0.60
2023-01-20T22:05:19.309Z,0.50
2023-01-20T22:07:48.404Z,0.50
2023-01-20T22:10:17.735Z,0.50
2023-01-20T22:12:46.341Z,0.50
2023-01-20T22:15:15.272Z,0.50
2023-01-20T22:17:43.645Z,0.50
2023-01-20T22:20:12.763Z,0.50
2023-01-20T22:22:42.539Z,0.50
2023-01-20T22:25:11.408Z,0.60
2023-01-20T22:27:39.739Z,0.50
2023-01-20T22:30:09.386Z,0.50
2023-01-20T22:32:37.651Z,0.50
2023-01-20T22:35:06.727Z,0.50
2023-01-20T22:37:35.032Z,0.50
2023-01-20T22:40:06.236Z,0.50
2023-01-20T22:42:35.503Z,0.50
2023-01-20T22:45:04.068Z,0.50
2023-01-20T22:47:32.382Z,0.40
2023-01-20T22:50:00.741Z,0.40
2023-01-20T22:52:29.082Z,0.40
2023-01-20T22:54:57.463Z,0.40
2023-01-20T22:57:27.132Z,0.40
2023-01-20T22:59:55.686Z,0.40
2023-01-20T23:02:24.084Z,0.40
2023-01-20T23:04:53.091Z,0.40
2023-01-20T23:07:21.956Z,0.40
2023-01-20T23:09:50.543Z,0.40
2023-01-20T23:12:18.926Z,0.40
2023-01-20T23:15:00.827Z,0.40
2023-01-20T23:17:30.641Z,0.40
2023-01-20T23:19:59.568Z,0.40
2023-01-20T23:22:29.947Z,0.40
2023-01-20T23:24:58.159Z,0.30
2023-01-20T23:27:26.536Z,0.30
2023-01-20T23:29:55.973Z,0.30
2023-01-20T23:32:24.272Z,0.30
2023-01-20T23:34:52.562Z,0.30
2023-01-20T23:37:20.854Z,0.30
2023-01-20T23:39:51.956Z,0.30
2023-01-20T23:42:20.919Z,0.30
2023-01-20T23:44:49.068Z,0.30
2023-01-20T23:47:18.802Z,0.30
2023-01-20T23:49:46.965Z,0.30
2023-01-20T23:52:15.390Z,0.30
2023-01-20T23:54:43.561Z,0.30
2023-01-20T23:57:11.853Z,0.20
2023-01-20T23:59:40.079Z,0.20
